E16

San Martin Airport

San Martin, California, USA
METAR KE16 251310Z AUTO 00000KT 1/4SM FG OVC002 10/09 A2994 RMK AO2
Observed Flight Rules
Sep-25 @ 13:10 UTC (4 hours ago) Instrument Flight Rules
Visibility Clouds Conditions
1/4 miles
  • Overcast at 200' AGL
  • Fog
Temperatures Readings
Current 10°C / 50°F
Dewpoint 9°C / 48°F
Humidity 94%
Altimeter 29.94" Hg
Pressure 1014 hPa
Elevation 86
METAR KE16 251310Z AUTO 00000KT 1/4SM FG OVC002 10/09 A2994 RMK AO2
Observed Flight Rules
Sep-25 @ 13:10 UTC
(4 hours ago)
LIFR
Clouds
  • Overcast at 200' AGL
Conditions
  • Fog
Temperature Dewpoint
10°C / 50°F 9°C / 48°F
Humidity Altimeter Pressure
94% 29.94" Hg 1014 hPa